Terminal Aerodrome Forecast
Issued by NWS Sterling, VA

Current Version | Previous Version | Graphics & Text | Print | Product List | Glossary On
Versions: 1 2 3 4 5 6 7 8 9 10 11 12 13 14 15 16 17 18 19 20 21 22 23
213
FTUS41 KLWX 211122
TAFMRB
TAF
KMRB 211122Z 2112/2212 14005KT P6SM OVC030
     FM220100 14008KT P6SM -SHRA OVC025
     FM220600 16005KT 2SM -SHRA OVC010=

USA.gov is the U.S. government's official web portal to all federal, state and local government web resources and services.